createdAt,value
2019-04-22T08:49:44.317Z,10.32
2019-04-22T08:52:10.543Z,10.03
2019-04-22T08:54:41.000Z,9.08
2019-04-22T08:57:11.122Z,8.90
2019-04-22T08:59:38.558Z,10.05
2019-04-22T09:02:13.370Z,9.40
2019-04-22T09:04:39.137Z,9.40
2019-04-22T09:12:14.265Z,9.13
2019-04-22T09:14:43.442Z,8.65
2019-04-22T09:17:14.668Z,8.68
2019-04-22T09:19:40.833Z,7.60
2019-04-22T09:22:15.482Z,8.15
2019-04-22T09:24:43.422Z,7.67
2019-04-22T09:27:18.090Z,8.05
2019-04-22T09:29:43.076Z,7.97
2019-04-22T09:32:32.946Z,7.72
2019-04-22T09:34:47.389Z,7.33
2019-04-22T09:37:23.669Z,7.47
2019-04-22T09:39:50.817Z,7.92
2019-04-22T09:42:18.811Z,7.97
2019-04-22T09:44:47.496Z,7.22
2019-04-22T09:47:19.418Z,7.28
2019-04-22T09:49:54.936Z,10.95
2019-04-22T09:52:18.701Z,7.45
2019-04-22T09:57:23.306Z,6.70
2019-04-22T09:59:57.957Z,7.55
2019-04-22T10:02:31.310Z,6.72
2019-04-22T10:04:57.211Z,7.42
2019-04-22T10:07:25.994Z,6.60
2019-04-22T10:12:28.049Z,5.90
2019-04-22T10:14:55.511Z,6.30
2019-04-22T10:17:26.955Z,5.80
2019-04-22T10:19:53.048Z,7.30
2019-04-22T10:24:57.052Z,5.83
2019-04-22T10:27:26.154Z,5.62
2019-04-22T10:30:00.243Z,5.47
2019-04-22T10:32:27.053Z,5.80
2019-04-22T10:34:48.018Z,5.65
2019-04-22T10:37:14.414Z,4.45
2019-04-22T10:39:51.372Z,4.92
2019-04-22T10:44:45.212Z,5.33
2019-04-22T10:47:15.843Z,5.28
2019-04-22T10:49:44.583Z,4.75
2019-04-22T10:52:13.107Z,4.95
2019-04-22T10:54:41.653Z,5.40
2019-04-22T10:57:10.842Z,5.05
2019-04-22T10:59:40.676Z,4.67
2019-04-22T11:02:09.805Z,5.05
2019-04-22T11:04:38.660Z,5.62
2019-04-22T11:07:10.838Z,4.90
2019-04-22T11:09:49.417Z,5.42
2019-04-22T11:12:13.676Z,5.25
2019-04-22T11:14:42.808Z,4.65
2019-04-22T11:17:09.248Z,5.55
2019-04-22T11:19:37.758Z,4.87
2019-04-22T11:22:16.203Z,5.47
2019-04-22T11:24:37.319Z,5.55
2019-04-22T11:27:07.038Z,5.12
2019-04-22T11:29:37.462Z,4.05
2019-04-22T11:32:06.369Z,5.22
2019-04-22T11:34:35.417Z,4.92
2019-04-22T11:37:05.253Z,4.45
2019-04-22T11:39:36.472Z,4.85
2019-04-22T11:42:04.966Z,4.97
2019-04-22T11:44:35.193Z,4.95
2019-04-22T11:47:05.326Z,4.55
2019-04-22T11:49:34.202Z,4.28
2019-04-22T11:52:05.459Z,4.47
2019-04-22T11:54:34.693Z,4.83
2019-04-22T11:57:03.470Z,5.00
2019-04-22T11:59:33.033Z,4.78
2019-04-22T12:02:02.568Z,4.62
2019-04-22T12:04:32.096Z,4.20
2019-04-22T12:07:02.120Z,4.87
2019-04-22T12:09:30.827Z,4.85
2019-04-22T12:11:59.994Z,4.55
2019-04-22T12:14:29.998Z,4.55
2019-04-22T12:16:59.409Z,4.50
2019-04-22T12:19:29.443Z,4.20
2019-04-22T12:21:59.094Z,4.37
2019-04-22T12:24:30.146Z,4.62
2019-04-22T12:27:00.307Z,4.78
2019-04-22T12:29:29.131Z,5.45
2019-04-22T12:31:57.883Z,4.58
2019-04-22T12:34:26.394Z,5.30
2019-04-22T12:36:56.318Z,4.30
2019-04-22T12:39:25.400Z,5.00
2019-04-22T12:41:54.206Z,4.83
2019-04-22T12:44:24.275Z,4.95
2019-04-22T12:46:54.321Z,3.95
2019-04-22T12:49:23.761Z,4.50
2019-04-22T12:51:52.387Z,4.40
2019-04-22T12:54:21.459Z,4.28
2019-04-22T12:56:51.369Z,4.45
2019-04-22T12:59:21.486Z,4.65
2019-04-22T13:01:51.197Z,4.67
2019-04-22T13:04:21.692Z,4.78
2019-04-22T13:06:50.596Z,4.47
2019-04-22T13:09:19.571Z,5.30
2019-04-22T13:11:50.904Z,6.92
2019-04-22T13:14:21.024Z,4.10
2019-04-22T13:16:51.077Z,3.72
2019-04-22T13:19:22.583Z,5.28
2019-04-22T13:21:51.006Z,4.37
2019-04-22T13:24:20.158Z,4.55
2019-04-22T13:26:50.582Z,4.20
2019-04-22T13:29:21.209Z,4.35
2019-04-22T13:31:50.828Z,4.50
2019-04-22T13:34:29.786Z,5.10
2019-04-22T13:36:50.434Z,4.33
2019-04-22T13:39:19.095Z,4.90
2019-04-22T13:41:52.412Z,4.40
2019-04-22T13:44:18.945Z,4.30
2019-04-22T13:47:02.152Z,4.37
2019-04-22T13:49:53.191Z,3.90
2019-04-22T13:52:29.213Z,3.70
2019-04-22T13:54:50.432Z,4.45
2019-04-22T13:57:14.748Z,3.65
2019-04-22T13:59:28.750Z,4.40
2019-04-22T14:02:02.473Z,3.80
2019-04-22T14:04:34.696Z,3.92
2019-04-22T14:07:05.002Z,3.92
2019-04-22T14:09:33.986Z,3.22
2019-04-22T14:12:05.829Z,3.52
2019-04-22T14:14:33.748Z,3.45
2019-04-22T14:17:02.986Z,3.65
2019-04-22T14:19:32.284Z,3.70
2019-04-22T14:22:01.961Z,3.60
2019-04-22T14:24:30.752Z,3.45
2019-04-22T14:27:17.851Z,3.40
2019-04-22T14:29:31.327Z,3.05
2019-04-22T14:34:32.071Z,3.50
2019-04-22T14:37:01.465Z,2.87
2019-04-22T14:39:30.464Z,3.67
2019-04-22T14:42:20.428Z,2.77
2019-04-22T14:44:12.632Z,3.50
2019-04-22T14:45:18.956Z,3.17
2019-04-22T14:47:25.934Z,2.60
2019-04-22T14:49:55.664Z,3.20
2019-04-22T14:52:30.702Z,3.47
2019-04-22T14:54:45.943Z,2.85
2019-04-22T14:57:03.340Z,2.52
2019-04-22T14:59:32.617Z,2.30
2019-04-22T15:02:01.459Z,3.00
2019-04-22T15:04:31.076Z,2.22
2019-04-22T15:07:01.070Z,2.42
2019-04-22T15:09:30.129Z,2.20
2019-04-22T15:12:11.089Z,2.22
2019-04-22T15:14:29.872Z,2.15
2019-04-22T15:17:20.795Z,2.40
2019-04-22T15:20:14.047Z,2.45
2019-04-22T15:22:44.050Z,2.90
2019-04-22T15:25:14.450Z,2.35
2019-04-22T15:27:43.489Z,2.40
2019-04-22T15:30:12.319Z,2.22
2019-04-22T15:32:41.318Z,1.92
2019-04-22T15:35:11.354Z,2.05
2019-04-22T15:37:41.431Z,2.05
2019-04-22T15:40:11.144Z,1.92
2019-04-22T15:42:43.195Z,2.20
2019-04-22T15:45:12.608Z,2.17
2019-04-22T15:47:41.905Z,2.10
2019-04-22T15:50:12.263Z,2.00
2019-04-22T15:52:48.851Z,2.30
2019-04-22T15:55:11.828Z,2.67
2019-04-22T15:57:41.966Z,1.90
2019-04-22T16:00:26.438Z,2.27
2019-04-22T16:02:43.632Z,2.27
2019-04-22T16:05:13.092Z,1.65
2019-04-22T16:07:42.260Z,2.15
2019-04-22T16:10:12.245Z,2.08
2019-04-22T16:12:52.004Z,2.20
2019-04-22T16:15:13.297Z,2.10
2019-04-22T16:17:42.488Z,2.00
2019-04-22T16:20:11.298Z,1.85
2019-04-22T16:23:03.493Z,2.37
2019-04-22T16:25:58.941Z,2.17
2019-04-22T16:28:29.176Z,2.40
2019-04-22T16:30:59.476Z,2.22
2019-04-22T16:33:28.304Z,2.47
2019-04-22T16:35:58.567Z,2.35
2019-04-22T16:38:28.921Z,2.50
2019-04-22T16:40:58.888Z,2.17
2019-04-22T16:43:28.760Z,1.90
2019-04-22T16:45:58.031Z,2.95
2019-04-22T16:48:27.449Z,2.10
2019-04-22T16:50:56.930Z,2.42
2019-04-22T16:53:27.233Z,1.98
2019-04-22T16:55:57.146Z,2.02
2019-04-22T16:58:26.016Z,2.17
2019-04-22T17:00:54.871Z,2.27
2019-04-22T17:03:42.814Z,2.00
2019-04-22T17:06:17.364Z,1.98
2019-04-22T17:08:46.738Z,2.87
2019-04-22T17:11:15.938Z,3.35
2019-04-22T17:13:46.179Z,2.52
2019-04-22T17:16:16.047Z,2.47
2019-04-22T17:18:45.523Z,2.33
2019-04-22T17:21:15.493Z,2.15
2019-04-22T17:23:45.540Z,2.30
2019-04-22T17:26:14.792Z,2.70
2019-04-22T17:28:43.857Z,2.55
2019-04-22T17:31:13.015Z,2.67
2019-04-22T17:33:41.692Z,3.30
2019-04-22T17:36:11.795Z,2.50
2019-04-22T17:38:48.678Z,2.75
2019-04-22T17:41:22.103Z,2.65
2019-04-22T17:44:06.626Z,2.62
2019-04-22T17:46:35.947Z,2.87
2019-04-22T17:49:33.927Z,3.10
2019-04-22T17:52:17.649Z,2.52
2019-04-22T17:54:49.733Z,2.72
2019-04-22T17:57:21.177Z,2.77
2019-04-22T17:59:46.662Z,3.10
2019-04-22T18:02:15.657Z,3.10
2019-04-22T18:04:40.395Z,2.47
2019-04-22T18:07:24.463Z,2.92
2019-04-22T18:12:27.124Z,2.50
2019-04-22T18:14:59.669Z,2.65
2019-04-22T18:17:25.641Z,2.60
2019-04-22T18:19:51.902Z,2.40
2019-04-22T18:22:18.390Z,2.83
2019-04-22T18:24:50.114Z,2.05
2019-04-22T18:27:38.935Z,2.37
2019-04-22T18:29:52.028Z,2.20
2019-04-22T18:32:17.995Z,2.90
2019-04-22T18:34:49.547Z,2.55
2019-04-22T18:37:19.919Z,2.60
2019-04-22T18:39:58.976Z,2.50
2019-04-22T18:42:24.278Z,2.90
2019-04-22T18:45:20.347Z,2.33
2019-04-22T18:47:28.120Z,2.45
2019-04-22T18:49:56.673Z,2.02
2019-04-22T18:52:45.635Z,2.17
2019-04-22T18:55:16.663Z,2.60
2019-04-22T18:58:01.046Z,2.27
2019-04-22T19:00:18.020Z,2.00
2019-04-22T19:02:54.043Z,1.65
2019-04-22T19:05:34.783Z,1.65
2019-04-22T19:08:17.841Z,2.40
2019-04-22T19:10:56.081Z,1.60
2019-04-22T19:13:45.772Z,2.10
2019-04-22T19:15:47.203Z,1.77
2019-04-22T19:18:27.054Z,1.90
2019-04-22T19:20:51.897Z,1.60
2019-04-22T19:23:20.719Z,2.02
2019-04-22T19:25:41.858Z,1.90
2019-04-22T19:28:23.950Z,1.87
2019-04-22T19:30:54.861Z,1.90
2019-04-22T19:33:23.574Z,2.00
2019-04-22T19:35:50.398Z,2.05
2019-04-22T19:38:15.641Z,1.95
2019-04-22T19:41:03.095Z,1.90
2019-04-22T19:43:30.847Z,2.00
2019-04-22T19:45:53.701Z,2.00
2019-04-22T19:48:33.221Z,1.80
2019-04-22T19:51:05.936Z,1.75
2019-04-22T19:53:29.467Z,2.12
2019-04-22T19:55:53.763Z,2.27
2019-04-22T19:58:31.544Z,1.50
2019-04-22T20:01:26.991Z,2.00
2019-04-22T20:04:16.493Z,2.00
2019-04-22T20:06:47.903Z,1.82
2019-04-22T20:09:26.865Z,1.52
2019-04-22T20:11:51.708Z,2.00
2019-04-22T20:14:21.881Z,1.80
2019-04-22T20:16:43.811Z,2.25
2019-04-22T20:19:31.897Z,1.90
2019-04-22T20:21:54.230Z,1.65
2019-04-22T20:24:12.061Z,1.80
2019-04-22T20:26:59.434Z,1.72
2019-04-22T20:29:36.615Z,1.72
2019-04-22T20:31:59.250Z,1.90
2019-04-22T20:34:36.021Z,1.60
2019-04-22T20:37:03.704Z,2.00
2019-04-22T20:39:36.316Z,1.70
2019-04-22T20:42:12.445Z,1.80
2019-04-22T20:44:33.547Z,1.65
2019-04-22T20:46:56.146Z,1.50
2019-04-22T20:49:33.770Z,1.35
2019-04-22T20:52:06.282Z,1.40
2019-04-22T20:54:34.952Z,1.32
2019-04-22T20:57:05.821Z,1.98
2019-04-22T20:59:33.366Z,1.30
2019-04-22T21:02:03.149Z,1.65
2019-04-22T21:04:26.076Z,1.75
2019-04-22T21:07:03.761Z,1.32
2019-04-22T21:09:35.517Z,1.62
2019-04-22T21:12:02.247Z,2.25
2019-04-22T21:14:32.134Z,1.67
2019-04-22T21:17:09.898Z,1.40
2019-04-22T21:22:08.038Z,1.45
2019-04-22T21:24:34.734Z,1.62
2019-04-22T21:27:13.973Z,1.70
2019-04-22T21:29:37.621Z,1.80
2019-04-22T21:32:13.664Z,1.70
2019-04-22T21:34:48.443Z,1.70
2019-04-22T21:39:36.696Z,2.10
2019-04-22T21:42:12.660Z,1.80
2019-04-22T21:44:42.726Z,2.00
2019-04-22T21:49:51.464Z,2.10
2019-04-22T21:52:20.779Z,1.98
2019-04-22T21:54:53.623Z,2.00
2019-04-22T21:57:52.663Z,2.30
2019-04-22T22:00:25.058Z,1.80
2019-04-22T22:02:45.847Z,2.60
2019-04-22T22:05:10.034Z,2.58
2019-04-22T22:07:30.988Z,2.40
2019-04-22T22:10:16.329Z,2.15
2019-04-22T22:12:54.848Z,2.08
2019-04-22T22:15:24.819Z,2.20
2019-04-22T22:17:51.278Z,2.22
2019-04-22T22:20:21.628Z,2.40
2019-04-22T22:23:01.441Z,2.10
2019-04-22T22:25:24.008Z,2.20
2019-04-22T22:27:53.350Z,2.70
2019-04-22T22:30:42.786Z,2.02
2019-04-22T22:33:01.302Z,2.27
2019-04-22T22:35:34.918Z,2.42
2019-04-22T22:38:01.442Z,2.50
2019-04-22T22:40:15.455Z,2.60
2019-04-22T22:42:45.615Z,2.22
2019-04-22T22:45:22.420Z,2.80
2019-04-22T22:48:12.220Z,2.60
2019-04-22T22:50:30.981Z,2.55
2019-04-22T22:53:22.354Z,2.70
2019-04-22T22:55:33.239Z,2.08
2019-04-22T22:58:11.363Z,2.47
2019-04-22T23:00:35.203Z,2.85
2019-04-22T23:03:38.400Z,2.08
2019-04-22T23:05:49.260Z,2.17
2019-04-22T23:08:17.104Z,2.27
2019-04-22T23:10:52.943Z,2.37
2019-04-22T23:13:20.407Z,2.30
2019-04-22T23:15:34.288Z,2.05
2019-04-22T23:17:51.881Z,1.95
2019-04-22T23:20:28.899Z,2.20
2019-04-22T23:23:15.750Z,2.50
2019-04-22T23:25:44.910Z,2.35
2019-04-22T23:31:09.457Z,2.37
2019-04-22T23:33:54.628Z,2.10
2019-04-22T23:36:54.284Z,2.00
2019-04-22T23:39:22.680Z,1.98
2019-04-22T23:41:58.527Z,2.17
2019-04-22T23:44:27.514Z,2.27
2019-04-22T23:47:18.786Z,1.82
2019-04-22T23:49:56.408Z,2.22
2019-04-22T23:52:33.074Z,2.08
2019-04-22T23:55:02.143Z,2.10
2019-04-22T23:57:33.190Z,2.00
